sensor_id;sensor_type;location;lat;lon;timestamp;P1;durP1;ratioP1;P2;durP2;ratioP2
10452;SDS011;5274;51.992;8.518;2023-08-01T00:02:18;48.70;;;45.50;;
10452;SDS011;5274;51.992;8.518;2023-08-01T00:04:44;47.55;;;44.45;;
10452;SDS011;5274;51.992;8.518;2023-08-01T00:07:10;47.17;;;44.17;;
10452;SDS011;5274;51.992;8.518;2023-08-01T00:09:36;46.88;;;43.88;;
10452;SDS011;5274;51.992;8.518;2023-08-01T00:12:02;48.53;;;45.42;;
10452;SDS011;5274;51.992;8.518;2023-08-01T00:14:28;49.72;;;46.53;;
10452;SDS011;5274;51.992;8.518;2023-08-01T00:16:54;49.70;;;46.50;;
10452;SDS011;5274;51.992;8.518;2023-08-01T00:19:20;48.83;;;45.53;;
10452;SDS011;5274;51.992;8.518;2023-08-01T00:21:46;50.30;;;46.97;;
10452;SDS011;5274;51.992;8.518;2023-08-01T00:24:12;51.03;;;47.40;;
10452;SDS011;5274;51.992;8.518;2023-08-01T00:26:38;49.90;;;46.45;;
10452;SDS011;5274;51.992;8.518;2023-08-01T00:29:04;49.92;;;46.63;;
10452;SDS011;5274;51.992;8.518;2023-08-01T00:31:30;50.30;;;46.90;;
10452;SDS011;5274;51.992;8.518;2023-08-01T00:33:56;50.22;;;46.53;;
10452;SDS011;5274;51.992;8.518;2023-08-01T00:36:22;50.85;;;47.45;;
10452;SDS011;5274;51.992;8.518;2023-08-01T00:38:48;49.05;;;45.80;;
10452;SDS011;5274;51.992;8.518;2023-08-01T00:41:14;47.97;;;44.55;;
10452;SDS011;5274;51.992;8.518;2023-08-01T00:43:40;48.20;;;45.10;;
10452;SDS011;5274;51.992;8.518;2023-08-01T00:46:06;48.65;;;45.55;;
10452;SDS011;5274;51.992;8.518;2023-08-01T00:48:33;49.30;;;46.03;;
10452;SDS011;5274;51.992;8.518;2023-08-01T00:51:00;49.38;;;46.08;;
10452;SDS011;5274;51.992;8.518;2023-08-01T00:53:27;49.13;;;45.88;;
10452;SDS011;5274;51.992;8.518;2023-08-01T00:55:53;46.75;;;43.65;;
10452;SDS011;5274;51.992;8.518;2023-08-01T00:58:20;46.25;;;43.15;;
10452;SDS011;5274;51.992;8.518;2023-08-01T01:00:46;44.65;;;41.78;;
10452;SDS011;5274;51.992;8.518;2023-08-01T01:03:13;45.75;;;42.65;;
10452;SDS011;5274;51.992;8.518;2023-08-01T01:05:40;45.65;;;42.65;;
10452;SDS011;5274;51.992;8.518;2023-08-01T01:08:06;46.60;;;43.60;;
10452;SDS011;5274;51.992;8.518;2023-08-01T01:10:33;47.17;;;44.20;;
10452;SDS011;5274;51.992;8.518;2023-08-01T01:12:58;47.25;;;43.92;;
10452;SDS011;5274;51.992;8.518;2023-08-01T01:15:24;48.35;;;45.05;;
10452;SDS011;5274;51.992;8.518;2023-08-01T01:17:51;47.40;;;44.20;;
10452;SDS011;5274;51.992;8.518;2023-08-01T01:20:22;48.13;;;44.92;;
10452;SDS011;5274;51.992;8.518;2023-08-01T01:22:49;47.97;;;44.55;;
10452;SDS011;5274;51.992;8.518;2023-08-01T01:25:15;46.30;;;43.40;;
10452;SDS011;5274;51.992;8.518;2023-08-01T01:27:42;47.53;;;44.53;;
10452;SDS011;5274;51.992;8.518;2023-08-01T01:30:10;47.33;;;44.17;;
10452;SDS011;5274;51.992;8.518;2023-08-01T01:32:36;49.90;;;46.70;;
10452;SDS011;5274;51.992;8.518;2023-08-01T01:35:03;48.55;;;45.45;;
10452;SDS011;5274;51.992;8.518;2023-08-01T01:37:29;48.28;;;45.17;;
10452;SDS011;5274;51.992;8.518;2023-08-01T01:39:55;47.97;;;44.97;;
10452;SDS011;5274;51.992;8.518;2023-08-01T01:42:21;47.90;;;44.85;;
10452;SDS011;5274;51.992;8.518;2023-08-01T01:44:47;46.25;;;43.25;;
10452;SDS011;5274;51.992;8.518;2023-08-01T01:47:13;46.80;;;43.80;;
10452;SDS011;5274;51.992;8.518;2023-08-01T01:49:39;46.13;;;43.33;;
10452;SDS011;5274;51.992;8.518;2023-08-01T01:52:05;47.42;;;44.20;;
10452;SDS011;5274;51.992;8.518;2023-08-01T01:54:31;45.28;;;42.38;;
10452;SDS011;5274;51.992;8.518;2023-08-01T01:56:57;45.67;;;42.78;;
10452;SDS011;5274;51.992;8.518;2023-08-01T01:59:23;45.42;;;42.55;;
10452;SDS011;5274;51.992;8.518;2023-08-01T02:01:49;46.50;;;43.58;;
10452;SDS011;5274;51.992;8.518;2023-08-01T02:04:14;46.13;;;43.25;;
10452;SDS011;5274;51.992;8.518;2023-08-01T02:06:40;46.88;;;43.88;;
10452;SDS011;5274;51.992;8.518;2023-08-01T02:09:09;45.10;;;42.30;;
10452;SDS011;5274;51.992;8.518;2023-08-01T02:11:35;47.20;;;44.20;;
10452;SDS011;5274;51.992;8.518;2023-08-01T02:14:01;46.55;;;43.45;;
10452;SDS011;5274;51.992;8.518;2023-08-01T02:16:28;45.95;;;43.08;;
10452;SDS011;5274;51.992;8.518;2023-08-01T02:18:53;46.20;;;43.20;;
10452;SDS011;5274;51.992;8.518;2023-08-01T02:21:19;46.22;;;43.38;;
10452;SDS011;5274;51.992;8.518;2023-08-01T02:23:45;46.63;;;43.58;;
10452;SDS011;5274;51.992;8.518;2023-08-01T02:26:11;46.22;;;43.35;;
10452;SDS011;5274;51.992;8.518;2023-08-01T02:28:37;45.03;;;42.13;;
10452;SDS011;5274;51.992;8.518;2023-08-01T02:31:03;44.58;;;41.78;;
10452;SDS011;5274;51.992;8.518;2023-08-01T02:33:29;45.28;;;42.47;;
10452;SDS011;5274;51.992;8.518;2023-08-01T02:35:55;45.20;;;42.40;;
10452;SDS011;5274;51.992;8.518;2023-08-01T02:38:21;37.03;;;35.22;;
10452;SDS011;5274;51.992;8.518;2023-08-01T02:40:47;39.78;;;37.83;;
10452;SDS011;5274;51.992;8.518;2023-08-01T02:43:13;40.60;;;38.60;;
10452;SDS011;5274;51.992;8.518;2023-08-01T02:45:41;42.58;;;40.47;;
10452;SDS011;5274;51.992;8.518;2023-08-01T02:48:07;42.35;;;40.22;;
10452;SDS011;5274;51.992;8.518;2023-08-01T02:50:33;44.28;;;41.97;;
10452;SDS011;5274;51.992;8.518;2023-08-01T02:52:59;45.55;;;43.25;;
10452;SDS011;5274;51.992;8.518;2023-08-01T02:55:25;43.38;;;41.17;;
10452;SDS011;5274;51.992;8.518;2023-08-01T02:57:50;43.78;;;41.58;;
10452;SDS011;5274;51.992;8.518;2023-08-01T03:00:16;42.53;;;40.33;;
10452;SDS011;5274;51.992;8.518;2023-08-01T03:02:42;41.58;;;39.47;;
10452;SDS011;5274;51.992;8.518;2023-08-01T03:05:09;41.88;;;39.78;;
10452;SDS011;5274;51.992;8.518;2023-08-01T03:07:35;41.38;;;39.28;;
10452;SDS011;5274;51.992;8.518;2023-08-01T03:10:01;40.65;;;38.45;;
10452;SDS011;5274;51.992;8.518;2023-08-01T03:12:27;42.50;;;39.97;;
10452;SDS011;5274;51.992;8.518;2023-08-01T03:14:53;40.33;;;37.80;;
10452;SDS011;5274;51.992;8.518;2023-08-01T03:17:19;41.53;;;39.17;;
10452;SDS011;5274;51.992;8.518;2023-08-01T03:19:45;40.22;;;37.83;;
10452;SDS011;5274;51.992;8.518;2023-08-01T03:22:11;43.20;;;40.80;;
10452;SDS011;5274;51.992;8.518;2023-08-01T03:24:37;43.05;;;40.58;;
10452;SDS011;5274;51.992;8.518;2023-08-01T03:27:03;48.05;;;45.15;;
10452;SDS011;5274;51.992;8.518;2023-08-01T03:29:29;49.17;;;46.08;;
10452;SDS011;5274;51.992;8.518;2023-08-01T03:31:55;49.00;;;45.97;;
10452;SDS011;5274;51.992;8.518;2023-08-01T03:34:21;47.47;;;44.47;;
10452;SDS011;5274;51.992;8.518;2023-08-01T03:36:47;47.42;;;44.58;;
10452;SDS011;5274;51.992;8.518;2023-08-01T03:39:13;45.33;;;42.28;;
10452;SDS011;5274;51.992;8.518;2023-08-01T03:41:39;45.58;;;42.78;;
10452;SDS011;5274;51.992;8.518;2023-08-01T03:44:05;46.42;;;43.47;;
10452;SDS011;5274;51.992;8.518;2023-08-01T03:46:31;45.08;;;42.35;;
10452;SDS011;5274;51.992;8.518;2023-08-01T03:48:57;44.67;;;41.97;;
10452;SDS011;5274;51.992;8.518;2023-08-01T03:51:23;45.22;;;42.42;;
10452;SDS011;5274;51.992;8.518;2023-08-01T03:53:48;46.50;;;43.28;;
10452;SDS011;5274;51.992;8.518;2023-08-01T03:56:15;47.42;;;44.35;;
10452;SDS011;5274;51.992;8.518;2023-08-01T03:58:41;46.33;;;43.25;;
10452;SDS011;5274;51.992;8.518;2023-08-01T04:01:07;44.50;;;41.60;;
10452;SDS011;5274;51.992;8.518;2023-08-01T04:03:32;48.53;;;45.30;;
10452;SDS011;5274;51.992;8.518;2023-08-01T04:05:58;51.38;;;48.00;;
10452;SDS011;5274;51.992;8.518;2023-08-01T04:08:24;56.28;;;52.30;;
10452;SDS011;5274;51.992;8.518;2023-08-01T04:10:50;57.78;;;53.60;;
10452;SDS011;5274;51.992;8.518;2023-08-01T04:13:16;57.95;;;53.75;;
10452;SDS011;5274;51.992;8.518;2023-08-01T04:15:42;56.47;;;52.55;;
10452;SDS011;5274;51.992;8.518;2023-08-01T04:18:08;53.80;;;50.10;;
10452;SDS011;5274;51.992;8.518;2023-08-01T04:20:34;53.70;;;49.90;;
10452;SDS011;5274;51.992;8.518;2023-08-01T04:23:00;52.83;;;49.25;;
10452;SDS011;5274;51.992;8.518;2023-08-01T04:25:26;37.92;;;35.42;;
10452;SDS011;5274;51.992;8.518;2023-08-01T04:27:53;38.45;;;36.13;;
10452;SDS011;5274;51.992;8.518;2023-08-01T04:30:19;38.25;;;35.95;;
10452;SDS011;5274;51.992;8.518;2023-08-01T04:32:45;36.90;;;34.70;;
10452;SDS011;5274;51.992;8.518;2023-08-01T04:35:10;35.55;;;33.28;;
10452;SDS011;5274;51.992;8.518;2023-08-01T04:37:36;37.50;;;35.35;;
10452;SDS011;5274;51.992;8.518;2023-08-01T04:40:03;38.85;;;36.45;;
10452;SDS011;5274;51.992;8.518;2023-08-01T04:42:29;37.10;;;34.70;;
10452;SDS011;5274;51.992;8.518;2023-08-01T04:44:55;39.22;;;36.95;;
10452;SDS011;5274;51.992;8.518;2023-08-01T04:47:21;38.53;;;36.22;;
10452;SDS011;5274;51.992;8.518;2023-08-01T04:49:47;39.60;;;36.85;;
10452;SDS011;5274;51.992;8.518;2023-08-01T04:52:13;39.22;;;36.88;;
10452;SDS011;5274;51.992;8.518;2023-08-01T04:54:38;36.72;;;34.20;;
10452;SDS011;5274;51.992;8.518;2023-08-01T04:57:05;35.47;;;33.28;;
10452;SDS011;5274;51.992;8.518;2023-08-01T04:59:31;37.03;;;34.92;;
10452;SDS011;5274;51.992;8.518;2023-08-01T05:01:56;36.45;;;34.25;;
10452;SDS011;5274;51.992;8.518;2023-08-01T05:04:23;35.55;;;33.42;;
10452;SDS011;5274;51.992;8.518;2023-08-01T05:06:49;35.15;;;32.85;;
10452;SDS011;5274;51.992;8.518;2023-08-01T05:09:15;35.28;;;32.97;;
10452;SDS011;5274;51.992;8.518;2023-08-01T05:11:41;36.95;;;34.47;;
10452;SDS011;5274;51.992;8.518;2023-08-01T05:14:07;38.28;;;35.67;;
10452;SDS011;5274;51.992;8.518;2023-08-01T05:16:33;38.97;;;36.22;;
10452;SDS011;5274;51.992;8.518;2023-08-01T05:18:59;39.20;;;36.70;;
10452;SDS011;5274;51.992;8.518;2023-08-01T05:21:25;39.75;;;36.92;;
10452;SDS011;5274;51.992;8.518;2023-08-01T05:23:51;41.47;;;38.55;;
10452;SDS011;5274;51.992;8.518;2023-08-01T05:26:17;41.75;;;38.80;;
10452;SDS011;5274;51.992;8.518;2023-08-01T05:28:43;42.70;;;39.65;;
10452;SDS011;5274;51.992;8.518;2023-08-01T05:31:09;40.17;;;37.58;;
10452;SDS011;5274;51.992;8.518;2023-08-01T05:33:35;39.65;;;36.92;;
10452;SDS011;5274;51.992;8.518;2023-08-01T05:36:00;40.42;;;37.65;;
10452;SDS011;5274;51.992;8.518;2023-08-01T05:38:27;38.15;;;35.33;;
10452;SDS011;5274;51.992;8.518;2023-08-01T05:40:53;39.95;;;37.00;;
10452;SDS011;5274;51.992;8.518;2023-08-01T05:43:18;40.53;;;37.30;;
10452;SDS011;5274;51.992;8.518;2023-08-01T05:45:44;40.10;;;37.40;;
10452;SDS011;5274;51.992;8.518;2023-08-01T05:48:10;39.03;;;36.42;;
10452;SDS011;5274;51.992;8.518;2023-08-01T05:50:38;39.75;;;36.72;;
10452;SDS011;5274;51.992;8.518;2023-08-01T05:53:04;40.80;;;37.78;;
10452;SDS011;5274;51.992;8.518;2023-08-01T05:55:30;39.85;;;37.13;;
10452;SDS011;5274;51.992;8.518;2023-08-01T05:57:56;40.00;;;37.15;;
10452;SDS011;5274;51.992;8.518;2023-08-01T06:00:23;42.58;;;39.40;;
10452;SDS011;5274;51.992;8.518;2023-08-01T06:02:49;42.40;;;39.00;;
10452;SDS011;5274;51.992;8.518;2023-08-01T06:05:15;40.53;;;37.83;;
10452;SDS011;5274;51.992;8.518;2023-08-01T06:07:41;39.20;;;36.53;;
10452;SDS011;5274;51.992;8.518;2023-08-01T06:10:07;39.53;;;36.47;;
10452;SDS011;5274;51.992;8.518;2023-08-01T06:12:33;41.20;;;37.58;;
10452;SDS011;5274;51.992;8.518;2023-08-01T06:14:59;38.65;;;36.03;;
10452;SDS011;5274;51.992;8.518;2023-08-01T06:17:25;37.28;;;34.60;;
10452;SDS011;5274;51.992;8.518;2023-08-01T06:19:51;37.08;;;34.42;;
10452;SDS011;5274;51.992;8.518;2023-08-01T06:22:19;37.33;;;34.28;;
10452;SDS011;5274;51.992;8.518;2023-08-01T06:24:45;39.53;;;36.40;;
10452;SDS011;5274;51.992;8.518;2023-08-01T06:27:11;41.22;;;37.97;;
10452;SDS011;5274;51.992;8.518;2023-08-01T06:29:38;40.45;;;37.53;;
10452;SDS011;5274;51.992;8.518;2023-08-01T06:32:04;39.90;;;36.88;;
10452;SDS011;5274;51.992;8.518;2023-08-01T06:34:30;39.03;;;36.00;;
10452;SDS011;5274;51.992;8.518;2023-08-01T06:36:56;38.75;;;36.05;;
10452;SDS011;5274;51.992;8.518;2023-08-01T06:39:22;39.30;;;36.65;;
10452;SDS011;5274;51.992;8.518;2023-08-01T06:41:48;42.15;;;38.47;;
10452;SDS011;5274;51.992;8.518;2023-08-01T06:44:14;43.35;;;40.30;;
10452;SDS011;5274;51.992;8.518;2023-08-01T06:46:40;42.50;;;39.40;;
10452;SDS011;5274;51.992;8.518;2023-08-01T06:49:06;43.88;;;40.08;;
10452;SDS011;5274;51.992;8.518;2023-08-01T06:51:32;41.13;;;38.15;;
10452;SDS011;5274;51.992;8.518;2023-08-01T06:53:58;44.33;;;41.03;;
10452;SDS011;5274;51.992;8.518;2023-08-01T06:56:24;43.65;;;40.25;;
10452;SDS011;5274;51.992;8.518;2023-08-01T06:58:50;44.08;;;40.90;;
10452;SDS011;5274;51.992;8.518;2023-08-01T07:01:16;43.35;;;39.92;;
10452;SDS011;5274;51.992;8.518;2023-08-01T07:03:41;43.30;;;39.95;;
10452;SDS011;5274;51.992;8.518;2023-08-01T07:06:07;42.40;;;39.50;;
10452;SDS011;5274;51.992;8.518;2023-08-01T07:08:35;43.60;;;40.53;;
10452;SDS011;5274;51.992;8.518;2023-08-01T07:11:01;41.38;;;38.25;;
10452;SDS011;5274;51.992;8.518;2023-08-01T07:13:27;43.30;;;40.25;;
10452;SDS011;5274;51.992;8.518;2023-08-01T07:15:53;47.35;;;44.08;;
10452;SDS011;5274;51.992;8.518;2023-08-01T07:18:19;46.13;;;42.80;;
10452;SDS011;5274;51.992;8.518;2023-08-01T07:20:45;46.63;;;43.33;;
10452;SDS011;5274;51.992;8.518;2023-08-01T07:23:11;43.25;;;40.10;;
10452;SDS011;5274;51.992;8.518;2023-08-01T07:25:37;41.83;;;38.95;;
10452;SDS011;5274;51.992;8.518;2023-08-01T07:28:03;40.25;;;37.45;;
10452;SDS011;5274;51.992;8.518;2023-08-01T07:30:29;41.47;;;38.65;;
10452;SDS011;5274;51.992;8.518;2023-08-01T07:32:55;39.90;;;37.28;;
10452;SDS011;5274;51.992;8.518;2023-08-01T07:35:21;40.75;;;37.42;;
10452;SDS011;5274;51.992;8.518;2023-08-01T07:37:47;41.50;;;38.50;;
10452;SDS011;5274;51.992;8.518;2023-08-01T07:40:13;38.25;;;35.65;;
10452;SDS011;5274;51.992;8.518;2023-08-01T07:42:39;41.67;;;38.65;;
10452;SDS011;5274;51.992;8.518;2023-08-01T07:45:05;42.95;;;39.95;;
10452;SDS011;5274;51.992;8.518;2023-08-01T07:47:32;42.75;;;39.65;;
10452;SDS011;5274;51.992;8.518;2023-08-01T07:49:58;39.53;;;36.63;;
10452;SDS011;5274;51.992;8.518;2023-08-01T07:52:24;37.63;;;34.95;;
10452;SDS011;5274;51.992;8.518;2023-08-01T07:54:50;40.83;;;38.03;;
10452;SDS011;5274;51.992;8.518;2023-08-01T07:57:18;40.72;;;37.95;;
10452;SDS011;5274;51.992;8.518;2023-08-01T07:59:44;40.95;;;38.10;;
10452;SDS011;5274;51.992;8.518;2023-08-01T08:02:10;40.90;;;38.10;;
10452;SDS011;5274;51.992;8.518;2023-08-01T08:04:35;51.10;;;47.45;;
10452;SDS011;5274;51.992;8.518;2023-08-01T08:07:01;51.15;;;47.60;;
10452;SDS011;5274;51.992;8.518;2023-08-01T08:09:27;51.00;;;47.45;;
10452;SDS011;5274;51.992;8.518;2023-08-01T08:11:53;50.55;;;47.13;;
10452;SDS011;5274;51.992;8.518;2023-08-01T08:14:22;51.05;;;47.40;;
10452;SDS011;5274;51.992;8.518;2023-08-01T08:16:48;51.17;;;47.75;;
10452;SDS011;5274;51.992;8.518;2023-08-01T08:19:14;52.25;;;48.38;;
10452;SDS011;5274;51.992;8.518;2023-08-01T08:21:40;53.08;;;49.50;;
10452;SDS011;5274;51.992;8.518;2023-08-01T08:24:06;52.83;;;48.92;;
10452;SDS011;5274;51.992;8.518;2023-08-01T08:26:32;54.22;;;50.25;;
10452;SDS011;5274;51.992;8.518;2023-08-01T08:29:02;54.00;;;50.38;;
10452;SDS011;5274;51.992;8.518;2023-08-01T08:31:28;54.50;;;50.78;;
10452;SDS011;5274;51.992;8.518;2023-08-01T08:33:54;54.72;;;51.03;;
10452;SDS011;5274;51.992;8.518;2023-08-01T08:36:20;54.08;;;50.47;;
10452;SDS011;5274;51.992;8.518;2023-08-01T08:38:45;53.30;;;49.45;;
10452;SDS011;5274;51.992;8.518;2023-08-01T08:41:15;52.22;;;48.53;;
10452;SDS011;5274;51.992;8.518;2023-08-01T08:43:42;51.63;;;48.13;;
10452;SDS011;5274;51.992;8.518;2023-08-01T08:46:09;51.17;;;47.75;;
10452;SDS011;5274;51.992;8.518;2023-08-01T08:48:36;51.20;;;47.60;;
10452;SDS011;5274;51.992;8.518;2023-08-01T08:51:03;51.38;;;47.58;;
10452;SDS011;5274;51.992;8.518;2023-08-01T08:53:30;51.65;;;48.08;;
10452;SDS011;5274;51.992;8.518;2023-08-01T08:55:56;51.63;;;48.15;;
10452;SDS011;5274;51.992;8.518;2023-08-01T08:58:22;51.00;;;47.60;;
10452;SDS011;5274;51.992;8.518;2023-08-01T09:00:48;51.35;;;47.85;;
10452;SDS011;5274;51.992;8.518;2023-08-01T09:03:15;50.95;;;47.65;;
10452;SDS011;5274;51.992;8.518;2023-08-01T09:05:45;51.95;;;48.55;;
10452;SDS011;5274;51.992;8.518;2023-08-01T09:08:20;53.25;;;49.63;;
10452;SDS011;5274;51.992;8.518;2023-08-01T09:10:46;53.53;;;49.72;;
10452;SDS011;5274;51.992;8.518;2023-08-01T09:13:13;54.17;;;50.33;;
10452;SDS011;5274;51.992;8.518;2023-08-01T09:15:40;53.95;;;50.15;;
10452;SDS011;5274;51.992;8.518;2023-08-01T09:18:07;52.95;;;49.33;;
10452;SDS011;5274;51.992;8.518;2023-08-01T09:20:40;53.03;;;49.25;;
10452;SDS011;5274;51.992;8.518;2023-08-01T09:23:08;51.60;;;48.00;;
10452;SDS011;5274;51.992;8.518;2023-08-01T09:25:34;51.75;;;47.97;;
10452;SDS011;5274;51.992;8.518;2023-08-01T09:28:00;49.30;;;45.72;;
10452;SDS011;5274;51.992;8.518;2023-08-01T09:30:26;48.80;;;45.38;;
10452;SDS011;5274;51.992;8.518;2023-08-01T09:32:56;52.90;;;48.67;;
10452;SDS011;5274;51.992;8.518;2023-08-01T09:35:22;53.08;;;49.35;;
10452;SDS011;5274;51.992;8.518;2023-08-01T09:37:48;54.60;;;50.40;;
10452;SDS011;5274;51.992;8.518;2023-08-01T09:40:14;53.03;;;48.63;;
10452;SDS011;5274;51.992;8.518;2023-08-01T09:42:44;54.42;;;50.35;;
10452;SDS011;5274;51.992;8.518;2023-08-01T09:45:16;53.50;;;49.58;;
10452;SDS011;5274;51.992;8.518;2023-08-01T09:47:43;55.85;;;51.78;;
10452;SDS011;5274;51.992;8.518;2023-08-01T09:50:10;56.88;;;52.78;;
10452;SDS011;5274;51.992;8.518;2023-08-01T09:52:36;55.80;;;51.72;;
10452;SDS011;5274;51.992;8.518;2023-08-01T09:55:02;51.25;;;47.55;;
10452;SDS011;5274;51.992;8.518;2023-08-01T09:57:29;55.40;;;51.40;;
10452;SDS011;5274;51.992;8.518;2023-08-01T09:59:55;52.35;;;48.47;;
10452;SDS011;5274;51.992;8.518;2023-08-01T10:02:22;52.67;;;48.92;;
10452;SDS011;5274;51.992;8.518;2023-08-01T10:04:49;53.65;;;49.72;;
10452;SDS011;5274;51.992;8.518;2023-08-01T10:07:17;51.65;;;48.22;;
10452;SDS011;5274;51.992;8.518;2023-08-01T10:09:46;52.10;;;48.40;;
10452;SDS011;5274;51.992;8.518;2023-08-01T10:12:12;51.80;;;48.38;;
10452;SDS011;5274;51.992;8.518;2023-08-01T10:14:38;53.47;;;49.45;;
10452;SDS011;5274;51.992;8.518;2023-08-01T10:17:04;54.83;;;50.70;;
10452;SDS011;5274;51.992;8.518;2023-08-01T10:19:31;54.05;;;50.03;;
10452;SDS011;5274;51.992;8.518;2023-08-01T10:21:58;56.33;;;52.22;;
10452;SDS011;5274;51.992;8.518;2023-08-01T10:24:25;53.08;;;49.28;;
10452;SDS011;5274;51.992;8.518;2023-08-01T10:26:51;58.20;;;53.88;;
10452;SDS011;5274;51.992;8.518;2023-08-01T10:29:17;58.03;;;53.67;;
10452;SDS011;5274;51.992;8.518;2023-08-01T10:31:53;58.53;;;54.42;;
10452;SDS011;5274;51.992;8.518;2023-08-01T10:34:19;54.88;;;51.00;;
10452;SDS011;5274;51.992;8.518;2023-08-01T10:36:58;56.72;;;52.50;;
10452;SDS011;5274;51.992;8.518;2023-08-01T10:39:25;54.35;;;50.72;;
10452;SDS011;5274;51.992;8.518;2023-08-01T10:41:58;55.63;;;51.72;;
10452;SDS011;5274;51.992;8.518;2023-08-01T10:44:24;56.70;;;52.50;;
10452;SDS011;5274;51.992;8.518;2023-08-01T10:47:00;53.15;;;49.40;;
10452;SDS011;5274;51.992;8.518;2023-08-01T10:49:43;55.58;;;51.65;;
10452;SDS011;5274;51.992;8.518;2023-08-01T10:52:19;55.08;;;51.17;;
10452;SDS011;5274;51.992;8.518;2023-08-01T10:54:46;53.85;;;49.95;;
10452;SDS011;5274;51.992;8.518;2023-08-01T10:57:16;51.60;;;47.92;;
10452;SDS011;5274;51.992;8.518;2023-08-01T10:59:42;54.00;;;49.85;;
10452;SDS011;5274;51.992;8.518;2023-08-01T11:02:08;53.35;;;49.45;;
10452;SDS011;5274;51.992;8.518;2023-08-01T11:04:34;59.63;;;55.45;;
10452;SDS011;5274;51.992;8.518;2023-08-01T11:07:01;58.45;;;54.35;;
10452;SDS011;5274;51.992;8.518;2023-08-01T11:09:27;55.80;;;51.90;;
10452;SDS011;5274;51.992;8.518;2023-08-01T11:11:55;55.85;;;52.10;;
10452;SDS011;5274;51.992;8.518;2023-08-01T11:14:22;56.65;;;52.88;;
10452;SDS011;5274;51.992;8.518;2023-08-01T11:16:48;57.17;;;53.33;;
10452;SDS011;5274;51.992;8.518;2023-08-01T11:19:27;54.45;;;50.60;;
10452;SDS011;5274;51.992;8.518;2023-08-01T11:21:54;55.63;;;51.92;;
10452;SDS011;5274;51.992;8.518;2023-08-01T11:24:24;56.63;;;52.53;;
10452;SDS011;5274;51.992;8.518;2023-08-01T11:26:50;56.92;;;52.88;;
10452;SDS011;5274;51.992;8.518;2023-08-01T11:29:17;69.68;;;64.60;;
10452;SDS011;5274;51.992;8.518;2023-08-01T11:31:56;90.25;;;82.90;;
10452;SDS011;5274;51.992;8.518;2023-08-01T11:34:22;91.80;;;84.50;;
10452;SDS011;5274;51.992;8.518;2023-08-01T11:36:48;96.75;;;88.75;;
10452;SDS011;5274;51.992;8.518;2023-08-01T11:39:15;99.65;;;91.57;;
10452;SDS011;5274;51.992;8.518;2023-08-01T11:41:42;101.38;;;93.28;;
10452;SDS011;5274;51.992;8.518;2023-08-01T11:44:08;97.97;;;90.10;;
10452;SDS011;5274;51.992;8.518;2023-08-01T11:46:36;99.85;;;91.95;;
10452;SDS011;5274;51.992;8.518;2023-08-01T11:49:02;86.90;;;80.03;;
10452;SDS011;5274;51.992;8.518;2023-08-01T11:51:28;86.78;;;80.15;;
10452;SDS011;5274;51.992;8.518;2023-08-01T11:54:01;78.00;;;72.20;;
10452;SDS011;5274;51.992;8.518;2023-08-01T11:56:27;69.53;;;64.53;;
10452;SDS011;5274;51.992;8.518;2023-08-01T11:58:53;64.97;;;60.47;;
10452;SDS011;5274;51.992;8.518;2023-08-01T12:01:19;63.65;;;59.00;;
10452;SDS011;5274;51.992;8.518;2023-08-01T12:03:47;60.42;;;56.33;;
10452;SDS011;5274;51.992;8.518;2023-08-01T12:06:13;61.78;;;57.15;;
10452;SDS011;5274;51.992;8.518;2023-08-01T12:08:41;58.08;;;53.75;;
10452;SDS011;5274;51.992;8.518;2023-08-01T12:11:17;65.93;;;60.95;;
10452;SDS011;5274;51.992;8.518;2023-08-01T12:13:44;63.55;;;58.90;;
10452;SDS011;5274;51.992;8.518;2023-08-01T12:16:10;57.50;;;53.88;;
10452;SDS011;5274;51.992;8.518;2023-08-01T12:18:38;51.88;;;48.50;;
10452;SDS011;5274;51.992;8.518;2023-08-01T12:21:04;59.00;;;55.10;;
10452;SDS011;5274;51.992;8.518;2023-08-01T12:23:31;57.00;;;53.38;;
10452;SDS011;5274;51.992;8.518;2023-08-01T12:25:57;49.00;;;45.88;;
10452;SDS011;5274;51.992;8.518;2023-08-01T12:28:23;49.08;;;45.97;;
10452;SDS011;5274;51.992;8.518;2023-08-01T12:30:49;50.25;;;47.10;;
10452;SDS011;5274;51.992;8.518;2023-08-01T12:33:16;48.28;;;45.13;;
10452;SDS011;5274;51.992;8.518;2023-08-01T12:35:42;55.53;;;52.03;;
10452;SDS011;5274;51.992;8.518;2023-08-01T12:38:08;46.10;;;43.08;;
10452;SDS011;5274;51.992;8.518;2023-08-01T12:40:35;51.08;;;48.08;;
10452;SDS011;5274;51.992;8.518;2023-08-01T12:43:01;55.83;;;52.28;;
10452;SDS011;5274;51.992;8.518;2023-08-01T12:45:27;48.35;;;44.90;;
10452;SDS011;5274;51.992;8.518;2023-08-01T12:47:53;63.10;;;58.72;;
10452;SDS011;5274;51.992;8.518;2023-08-01T12:50:19;75.63;;;70.15;;
10452;SDS011;5274;51.992;8.518;2023-08-01T12:52:45;74.18;;;68.70;;
10452;SDS011;5274;51.992;8.518;2023-08-01T12:55:11;69.65;;;64.50;;
10452;SDS011;5274;51.992;8.518;2023-08-01T12:57:37;69.90;;;64.93;;
10452;SDS011;5274;51.992;8.518;2023-08-01T13:00:03;54.55;;;51.20;;
10452;SDS011;5274;51.992;8.518;2023-08-01T13:02:29;54.10;;;50.45;;
10452;SDS011;5274;51.992;8.518;2023-08-01T13:04:55;50.17;;;47.13;;
10452;SDS011;5274;51.992;8.518;2023-08-01T13:07:21;51.92;;;48.42;;
10452;SDS011;5274;51.992;8.518;2023-08-01T13:09:47;51.53;;;48.13;;
10452;SDS011;5274;51.992;8.518;2023-08-01T13:12:13;49.53;;;46.58;;
10452;SDS011;5274;51.992;8.518;2023-08-01T13:14:39;50.47;;;47.40;;
10452;SDS011;5274;51.992;8.518;2023-08-01T13:17:05;51.78;;;48.67;;
10452;SDS011;5274;51.992;8.518;2023-08-01T13:19:31;49.72;;;46.72;;
10452;SDS011;5274;51.992;8.518;2023-08-01T13:21:57;53.05;;;49.65;;
10452;SDS011;5274;51.992;8.518;2023-08-01T13:24:23;51.92;;;48.78;;
10452;SDS011;5274;51.992;8.518;2023-08-01T13:26:48;52.67;;;49.28;;
10452;SDS011;5274;51.992;8.518;2023-08-01T13:29:14;55.55;;;52.15;;
10452;SDS011;5274;51.992;8.518;2023-08-01T13:31:40;59.25;;;55.45;;
10452;SDS011;5274;51.992;8.518;2023-08-01T13:34:07;61.33;;;57.13;;
10452;SDS011;5274;51.992;8.518;2023-08-01T13:36:33;62.58;;;58.38;;
10452;SDS011;5274;51.992;8.518;2023-08-01T13:38:59;64.07;;;59.95;;
10452;SDS011;5274;51.992;8.518;2023-08-01T13:41:25;63.92;;;59.70;;
10452;SDS011;5274;51.992;8.518;2023-08-01T13:43:51;59.70;;;56.00;;
10452;SDS011;5274;51.992;8.518;2023-08-01T13:46:17;62.13;;;58.17;;
10452;SDS011;5274;51.992;8.518;2023-08-01T13:48:47;62.40;;;58.42;;
10452;SDS011;5274;51.992;8.518;2023-08-01T13:51:13;62.55;;;58.55;;
10452;SDS011;5274;51.992;8.518;2023-08-01T13:53:39;62.20;;;58.30;;
10452;SDS011;5274;51.992;8.518;2023-08-01T13:56:07;62.67;;;58.58;;
10452;SDS011;5274;51.992;8.518;2023-08-01T13:58:33;62.25;;;58.15;;
10452;SDS011;5274;51.992;8.518;2023-08-01T14:01:02;61.95;;;57.90;;
10452;SDS011;5274;51.992;8.518;2023-08-01T14:03:29;63.42;;;59.03;;
10452;SDS011;5274;51.992;8.518;2023-08-01T14:05:55;64.15;;;59.67;;
10452;SDS011;5274;51.992;8.518;2023-08-01T14:08:21;63.40;;;59.00;;
10452;SDS011;5274;51.992;8.518;2023-08-01T14:10:47;61.70;;;57.90;;
10452;SDS011;5274;51.992;8.518;2023-08-01T14:13:13;62.67;;;58.63;;
10452;SDS011;5274;51.992;8.518;2023-08-01T14:15:39;59.28;;;55.38;;
10452;SDS011;5274;51.992;8.518;2023-08-01T14:18:05;58.30;;;54.30;;
10452;SDS011;5274;51.992;8.518;2023-08-01T14:20:31;59.50;;;55.63;;
10452;SDS011;5274;51.992;8.518;2023-08-01T14:22:57;58.22;;;54.53;;
10452;SDS011;5274;51.992;8.518;2023-08-01T14:25:23;55.83;;;52.22;;
10452;SDS011;5274;51.992;8.518;2023-08-01T14:27:49;53.92;;;50.53;;
10452;SDS011;5274;51.992;8.518;2023-08-01T14:30:15;52.05;;;48.83;;